首页
METAR-TAF:

METAR-TAF

机场 :

匹兹堡, 宾夕法尼亚州, 美国

匹兹堡国际机场

纬度: 40-30-14N, 经度: 080-15-59W, 海拔: 366米

当前天气观测

该预报发布于56分钟前的22:51 UTC
风速5节,风向南转西南
温度 -4°C
湿度 54%
气压 1020 hPa
能見度: 16.1公里
天空无云

METAR: KPIT 182251Z 21005KT 10SM CLR M04/M12 A3011 RMK AO2 SLP225 T10391122

时间: 18:47 (23:47 UTC)

预报

该预报发布于27分钟前的23:20 UTC
预报有效从19日的 00点(UTC)到 20日的 06点(UTC)
风速9节,风向西南
能見度: 10公里
天空无云
从 19日的 1600点(UTC)
风速11节,风向西南,有时为22节阵风
能見度: 10公里
天空无云
从 20日的 0000点(UTC)
风速9节,风向西南
能見度: 10公里
天空无云

TAF: KPIT 182320Z 1900/2006 23009KT P6SM SKC FM191600 22011G22KT P6SM SKC FM200000 22009KT P6SM SKC

超过4000个机场的气象观测和天气预报(METAR&TAF报告)。

可查询的气象台以黄色和红色小点在地图上表示。

将鼠标移到小点上方,可查看气象台名称。

然后点击查看天气观测和预报。

如需切换地图:点击带黑十字的绿色按钮放大地图;点击带横线的绿色按钮缩小地图;或者点击绿色箭头查看邻近地区的地图。


METAR-TAF: